sensor_id;sensor_type;location;lat;lon;timestamp;temperature;humidity
37340;DHT22;23223;51.006;7.610;2022-07-12T00:00:57;13.80;99.90
37340;DHT22;23223;51.006;7.610;2022-07-12T00:03:23;13.60;99.90
37340;DHT22;23223;51.006;7.610;2022-07-12T00:05:48;13.40;99.90
37340;DHT22;23223;51.006;7.610;2022-07-12T00:08:14;13.30;99.90
37340;DHT22;23223;51.006;7.610;2022-07-12T00:10:39;13.20;99.90
37340;DHT22;23223;51.006;7.610;2022-07-12T00:13:05;13.10;99.90
37340;DHT22;23223;51.006;7.610;2022-07-12T00:15:30;13.00;99.90
37340;DHT22;23223;51.006;7.610;2022-07-12T00:17:56;13.00;99.90
37340;DHT22;23223;51.006;7.610;2022-07-12T00:20:22;12.90;99.90
37340;DHT22;23223;51.006;7.610;2022-07-12T00:22:47;12.80;99.90
37340;DHT22;23223;51.006;7.610;2022-07-12T00:25:13;12.80;99.90
37340;DHT22;23223;51.006;7.610;2022-07-12T00:27:39;12.90;99.90
37340;DHT22;23223;51.006;7.610;2022-07-12T00:30:06;12.90;99.90
37340;DHT22;23223;51.006;7.610;2022-07-12T00:32:33;12.80;99.90
37340;DHT22;23223;51.006;7.610;2022-07-12T00:34:58;12.70;99.90
37340;DHT22;23223;51.006;7.610;2022-07-12T00:37:24;12.70;99.90
37340;DHT22;23223;51.006;7.610;2022-07-12T00:39:50;12.50;99.90
37340;DHT22;23223;51.006;7.610;2022-07-12T00:42:16;12.50;99.90
37340;DHT22;23223;51.006;7.610;2022-07-12T00:44:42;12.60;99.90
37340;DHT22;23223;51.006;7.610;2022-07-12T00:47:07;12.70;99.90
37340;DHT22;23223;51.006;7.610;2022-07-12T00:49:33;13.00;99.90
37340;DHT22;23223;51.006;7.610;2022-07-12T00:51:58;13.40;99.90
37340;DHT22;23223;51.006;7.610;2022-07-12T00:54:24;13.50;99.90
37340;DHT22;23223;51.006;7.610;2022-07-12T00:56:49;13.40;99.90
37340;DHT22;23223;51.006;7.610;2022-07-12T00:59:15;13.50;99.90
37340;DHT22;23223;51.006;7.610;2022-07-12T01:01:41;13.60;99.90
37340;DHT22;23223;51.006;7.610;2022-07-12T01:04:07;13.70;99.90
37340;DHT22;23223;51.006;7.610;2022-07-12T01:06:35;13.70;99.90
37340;DHT22;23223;51.006;7.610;2022-07-12T01:09:01;13.60;99.90
37340;DHT22;23223;51.006;7.610;2022-07-12T01:11:27;13.30;99.90
37340;DHT22;23223;51.006;7.610;2022-07-12T01:13:54;13.10;99.90
37340;DHT22;23223;51.006;7.610;2022-07-12T01:16:21;12.90;99.90
37340;DHT22;23223;51.006;7.610;2022-07-12T01:18:47;12.90;99.90
37340;DHT22;23223;51.006;7.610;2022-07-12T01:21:18;13.20;99.90
37340;DHT22;23223;51.006;7.610;2022-07-12T01:23:47;13.30;99.90
37340;DHT22;23223;51.006;7.610;2022-07-12T01:26:13;13.10;99.90
37340;DHT22;23223;51.006;7.610;2022-07-12T01:28:39;12.80;99.90
37340;DHT22;23223;51.006;7.610;2022-07-12T01:31:05;12.50;99.90
37340;DHT22;23223;51.006;7.610;2022-07-12T01:33:31;12.30;99.90
37340;DHT22;23223;51.006;7.610;2022-07-12T01:35:57;12.40;99.90
37340;DHT22;23223;51.006;7.610;2022-07-12T01:38:22;12.30;99.90
37340;DHT22;23223;51.006;7.610;2022-07-12T01:40:48;12.10;99.90
37340;DHT22;23223;51.006;7.610;2022-07-12T01:43:14;12.00;99.90
37340;DHT22;23223;51.006;7.610;2022-07-12T01:45:40;11.90;99.90
37340;DHT22;23223;51.006;7.610;2022-07-12T01:48:07;11.70;99.90
37340;DHT22;23223;51.006;7.610;2022-07-12T01:50:32;11.60;99.90
37340;DHT22;23223;51.006;7.610;2022-07-12T01:52:58;11.50;99.90
37340;DHT22;23223;51.006;7.610;2022-07-12T01:55:24;11.50;99.90
37340;DHT22;23223;51.006;7.610;2022-07-12T01:57:50;11.80;99.90
37340;DHT22;23223;51.006;7.610;2022-07-12T02:00:17;11.90;99.90
37340;DHT22;23223;51.006;7.610;2022-07-12T02:02:45;11.80;99.90
37340;DHT22;23223;51.006;7.610;2022-07-12T02:05:11;11.70;99.90
37340;DHT22;23223;51.006;7.610;2022-07-12T02:07:38;11.80;99.90
37340;DHT22;23223;51.006;7.610;2022-07-12T02:10:06;11.90;99.90
37340;DHT22;23223;51.006;7.610;2022-07-12T02:12:33;12.20;99.90
37340;DHT22;23223;51.006;7.610;2022-07-12T02:14:58;12.30;99.90
37340;DHT22;23223;51.006;7.610;2022-07-12T02:17:24;12.20;99.90
37340;DHT22;23223;51.006;7.610;2022-07-12T02:19:49;11.90;99.90
37340;DHT22;23223;51.006;7.610;2022-07-12T02:22:15;11.70;99.90
37340;DHT22;23223;51.006;7.610;2022-07-12T02:24:40;11.60;99.90
37340;DHT22;23223;51.006;7.610;2022-07-12T02:27:06;11.60;99.90
37340;DHT22;23223;51.006;7.610;2022-07-12T02:29:32;11.50;99.90
37340;DHT22;23223;51.006;7.610;2022-07-12T02:31:57;11.40;99.90
37340;DHT22;23223;51.006;7.610;2022-07-12T02:34:23;11.30;99.90
37340;DHT22;23223;51.006;7.610;2022-07-12T02:36:48;11.40;99.90
37340;DHT22;23223;51.006;7.610;2022-07-12T02:39:14;11.70;99.90
37340;DHT22;23223;51.006;7.610;2022-07-12T02:41:39;11.80;99.90
37340;DHT22;23223;51.006;7.610;2022-07-12T02:44:05;11.70;99.90
37340;DHT22;23223;51.006;7.610;2022-07-12T02:46:31;11.60;99.90
37340;DHT22;23223;51.006;7.610;2022-07-12T02:48:56;11.40;99.90
37340;DHT22;23223;51.006;7.610;2022-07-12T02:51:23;11.30;99.90
37340;DHT22;23223;51.006;7.610;2022-07-12T02:53:48;11.30;99.90
37340;DHT22;23223;51.006;7.610;2022-07-12T02:56:14;11.60;99.90
37340;DHT22;23223;51.006;7.610;2022-07-12T02:58:39;11.70;99.90
37340;DHT22;23223;51.006;7.610;2022-07-12T03:01:05;11.70;99.90
37340;DHT22;23223;51.006;7.610;2022-07-12T03:03:30;11.70;99.90
37340;DHT22;23223;51.006;7.610;2022-07-12T03:05:56;11.70;99.90
37340;DHT22;23223;51.006;7.610;2022-07-12T03:08:22;11.70;99.90
37340;DHT22;23223;51.006;7.610;2022-07-12T03:10:48;12.00;99.90
37340;DHT22;23223;51.006;7.610;2022-07-12T03:13:13;12.20;99.90
37340;DHT22;23223;51.006;7.610;2022-07-12T03:15:39;12.30;99.90
37340;DHT22;23223;51.006;7.610;2022-07-12T03:18:04;12.30;99.90
37340;DHT22;23223;51.006;7.610;2022-07-12T03:20:30;12.30;99.90
37340;DHT22;23223;51.006;7.610;2022-07-12T03:22:56;12.10;99.90
37340;DHT22;23223;51.006;7.610;2022-07-12T03:25:23;11.80;99.90
37340;DHT22;23223;51.006;7.610;2022-07-12T03:27:49;11.60;99.90
37340;DHT22;23223;51.006;7.610;2022-07-12T03:30:15;11.40;99.90
37340;DHT22;23223;51.006;7.610;2022-07-12T03:32:41;11.30;99.90
37340;DHT22;23223;51.006;7.610;2022-07-12T03:35:07;11.20;99.90
37340;DHT22;23223;51.006;7.610;2022-07-12T03:37:47;11.40;99.90
37340;DHT22;23223;51.006;7.610;2022-07-12T03:40:14;11.80;99.90
37340;DHT22;23223;51.006;7.610;2022-07-12T03:42:41;12.00;99.90
37340;DHT22;23223;51.006;7.610;2022-07-12T03:45:07;11.80;99.90
37340;DHT22;23223;51.006;7.610;2022-07-12T03:47:33;11.50;99.90
37340;DHT22;23223;51.006;7.610;2022-07-12T03:50:02;11.30;99.90
37340;DHT22;23223;51.006;7.610;2022-07-12T03:52:27;11.10;99.90
37340;DHT22;23223;51.006;7.610;2022-07-12T03:54:53;11.00;99.90
37340;DHT22;23223;51.006;7.610;2022-07-12T03:57:18;10.90;99.90
37340;DHT22;23223;51.006;7.610;2022-07-12T03:59:45;11.10;99.90
37340;DHT22;23223;51.006;7.610;2022-07-12T04:02:12;11.30;99.90
37340;DHT22;23223;51.006;7.610;2022-07-12T04:04:38;11.30;99.90
37340;DHT22;23223;51.006;7.610;2022-07-12T04:07:04;11.40;99.90
37340;DHT22;23223;51.006;7.610;2022-07-12T04:09:30;11.30;99.90
37340;DHT22;23223;51.006;7.610;2022-07-12T04:11:55;11.10;99.90
37340;DHT22;23223;51.006;7.610;2022-07-12T04:14:21;11.00;99.90
37340;DHT22;23223;51.006;7.610;2022-07-12T04:16:47;10.90;99.90
37340;DHT22;23223;51.006;7.610;2022-07-12T04:19:12;10.90;99.90
37340;DHT22;23223;51.006;7.610;2022-07-12T04:21:38;10.80;99.90
37340;DHT22;23223;51.006;7.610;2022-07-12T04:24:05;10.80;99.90
37340;DHT22;23223;51.006;7.610;2022-07-12T04:26:31;10.70;99.90
37340;DHT22;23223;51.006;7.610;2022-07-12T04:28:57;10.80;99.90
37340;DHT22;23223;51.006;7.610;2022-07-12T04:31:23;11.10;99.90
37340;DHT22;23223;51.006;7.610;2022-07-12T04:33:50;11.50;99.90
37340;DHT22;23223;51.006;7.610;2022-07-12T04:36:16;11.50;99.90
37340;DHT22;23223;51.006;7.610;2022-07-12T04:38:42;11.40;99.90
37340;DHT22;23223;51.006;7.610;2022-07-12T04:41:07;11.30;99.90
37340;DHT22;23223;51.006;7.610;2022-07-12T04:43:33;11.20;99.90
37340;DHT22;23223;51.006;7.610;2022-07-12T04:46:09;11.10;99.90
37340;DHT22;23223;51.006;7.610;2022-07-12T04:48:35;11.10;99.90
37340;DHT22;23223;51.006;7.610;2022-07-12T04:51:01;11.00;99.90
37340;DHT22;23223;51.006;7.610;2022-07-12T04:53:27;11.00;99.90
37340;DHT22;23223;51.006;7.610;2022-07-12T04:55:54;11.00;99.90
37340;DHT22;23223;51.006;7.610;2022-07-12T04:58:20;11.00;99.90
37340;DHT22;23223;51.006;7.610;2022-07-12T05:00:46;11.10;99.90
37340;DHT22;23223;51.006;7.610;2022-07-12T05:03:11;11.10;99.90
37340;DHT22;23223;51.006;7.610;2022-07-12T05:05:37;11.20;99.90
37340;DHT22;23223;51.006;7.610;2022-07-12T05:08:03;11.30;99.90
37340;DHT22;23223;51.006;7.610;2022-07-12T05:10:29;11.50;99.90
37340;DHT22;23223;51.006;7.610;2022-07-12T05:12:55;11.70;99.90
37340;DHT22;23223;51.006;7.610;2022-07-12T05:15:21;11.80;99.90
37340;DHT22;23223;51.006;7.610;2022-07-12T05:17:46;11.90;99.90
37340;DHT22;23223;51.006;7.610;2022-07-12T05:20:12;12.10;99.90
37340;DHT22;23223;51.006;7.610;2022-07-12T05:22:37;12.20;99.90
37340;DHT22;23223;51.006;7.610;2022-07-12T05:25:03;12.40;99.90
37340;DHT22;23223;51.006;7.610;2022-07-12T05:27:30;12.60;99.90
37340;DHT22;23223;51.006;7.610;2022-07-12T05:29:56;12.90;99.90
37340;DHT22;23223;51.006;7.610;2022-07-12T05:32:22;13.30;99.90
37340;DHT22;23223;51.006;7.610;2022-07-12T05:34:49;13.60;99.90
37340;DHT22;23223;51.006;7.610;2022-07-12T05:37:15;13.90;99.90
37340;DHT22;23223;51.006;7.610;2022-07-12T05:39:40;14.50;99.90
37340;DHT22;23223;51.006;7.610;2022-07-12T05:42:06;15.00;99.90
37340;DHT22;23223;51.006;7.610;2022-07-12T05:44:32;15.50;99.90
37340;DHT22;23223;51.006;7.610;2022-07-12T05:46:57;15.90;99.90
37340;DHT22;23223;51.006;7.610;2022-07-12T05:49:23;16.30;99.90
37340;DHT22;23223;51.006;7.610;2022-07-12T05:51:48;16.50;99.90
37340;DHT22;23223;51.006;7.610;2022-07-12T05:54:32;16.80;99.90
37340;DHT22;23223;51.006;7.610;2022-07-12T05:56:58;17.10;99.90
37340;DHT22;23223;51.006;7.610;2022-07-12T05:59:24;17.50;99.90
37340;DHT22;23223;51.006;7.610;2022-07-12T06:01:49;17.70;99.90
37340;DHT22;23223;51.006;7.610;2022-07-12T06:04:15;17.70;99.90
37340;DHT22;23223;51.006;7.610;2022-07-12T06:06:40;17.50;99.90
37340;DHT22;23223;51.006;7.610;2022-07-12T06:09:06;17.20;99.90
37340;DHT22;23223;51.006;7.610;2022-07-12T06:11:31;17.00;99.90
37340;DHT22;23223;51.006;7.610;2022-07-12T06:13:58;17.00;99.90
37340;DHT22;23223;51.006;7.610;2022-07-12T06:16:24;17.00;99.90
37340;DHT22;23223;51.006;7.610;2022-07-12T06:18:50;17.10;99.90
37340;DHT22;23223;51.006;7.610;2022-07-12T06:21:15;17.00;99.90
37340;DHT22;23223;51.006;7.610;2022-07-12T06:23:41;16.90;99.90
37340;DHT22;23223;51.006;7.610;2022-07-12T06:26:06;16.90;99.90
37340;DHT22;23223;51.006;7.610;2022-07-12T06:28:32;17.00;99.90
37340;DHT22;23223;51.006;7.610;2022-07-12T06:30:58;17.00;99.90
37340;DHT22;23223;51.006;7.610;2022-07-12T06:33:24;17.10;99.90
37340;DHT22;23223;51.006;7.610;2022-07-12T06:35:49;17.20;99.90
37340;DHT22;23223;51.006;7.610;2022-07-12T06:38:15;17.20;99.90
37340;DHT22;23223;51.006;7.610;2022-07-12T06:40:41;17.40;99.90
37340;DHT22;23223;51.006;7.610;2022-07-12T06:43:10;17.60;99.90
37340;DHT22;23223;51.006;7.610;2022-07-12T06:45:37;17.70;99.90
37340;DHT22;23223;51.006;7.610;2022-07-12T06:48:03;17.90;99.90
37340;DHT22;23223;51.006;7.610;2022-07-12T06:50:30;18.00;99.90
37340;DHT22;23223;51.006;7.610;2022-07-12T06:52:55;18.10;99.90
37340;DHT22;23223;51.006;7.610;2022-07-12T06:55:22;18.40;99.90
37340;DHT22;23223;51.006;7.610;2022-07-12T06:57:47;18.70;99.90
37340;DHT22;23223;51.006;7.610;2022-07-12T07:00:13;18.90;99.90
37340;DHT22;23223;51.006;7.610;2022-07-12T07:02:39;19.20;99.90
37340;DHT22;23223;51.006;7.610;2022-07-12T07:05:06;19.50;99.90
37340;DHT22;23223;51.006;7.610;2022-07-12T07:07:31;19.90;99.90
37340;DHT22;23223;51.006;7.610;2022-07-12T07:09:57;20.30;99.90
37340;DHT22;23223;51.006;7.610;2022-07-12T07:12:23;20.90;99.90
37340;DHT22;23223;51.006;7.610;2022-07-12T07:14:49;21.30;99.90
37340;DHT22;23223;51.006;7.610;2022-07-12T07:17:18;21.80;99.90
37340;DHT22;23223;51.006;7.610;2022-07-12T07:19:45;22.50;99.90
37340;DHT22;23223;51.006;7.610;2022-07-12T07:22:11;23.10;99.90
37340;DHT22;23223;51.006;7.610;2022-07-12T07:24:38;23.60;99.90
37340;DHT22;23223;51.006;7.610;2022-07-12T07:27:04;24.20;99.90
37340;DHT22;23223;51.006;7.610;2022-07-12T07:29:29;24.60;99.90
37340;DHT22;23223;51.006;7.610;2022-07-12T07:32:14;24.80;99.90
37340;DHT22;23223;51.006;7.610;2022-07-12T07:34:39;25.20;99.90
37340;DHT22;23223;51.006;7.610;2022-07-12T07:37:07;25.30;99.90
37340;DHT22;23223;51.006;7.610;2022-07-12T07:39:33;25.60;99.90
37340;DHT22;23223;51.006;7.610;2022-07-12T07:41:59;25.90;99.90
37340;DHT22;23223;51.006;7.610;2022-07-12T07:44:24;26.00;99.90
37340;DHT22;23223;51.006;7.610;2022-07-12T07:46:50;26.20;99.90
37340;DHT22;23223;51.006;7.610;2022-07-12T07:49:16;26.20;99.90
37340;DHT22;23223;51.006;7.610;2022-07-12T07:51:41;26.30;99.90
37340;DHT22;23223;51.006;7.610;2022-07-12T07:54:07;26.50;99.90
37340;DHT22;23223;51.006;7.610;2022-07-12T07:56:32;26.40;99.90
37340;DHT22;23223;51.006;7.610;2022-07-12T07:58:58;26.80;99.90
37340;DHT22;23223;51.006;7.610;2022-07-12T08:01:24;27.10;99.90
37340;DHT22;23223;51.006;7.610;2022-07-12T08:04:15;27.10;99.90
37340;DHT22;23223;51.006;7.610;2022-07-12T08:06:41;27.20;99.90
37340;DHT22;23223;51.006;7.610;2022-07-12T08:09:07;27.10;99.90
37340;DHT22;23223;51.006;7.610;2022-07-12T08:11:33;27.20;99.90
37340;DHT22;23223;51.006;7.610;2022-07-12T08:13:59;27.40;99.90
37340;DHT22;23223;51.006;7.610;2022-07-12T08:16:25;27.60;99.90
37340;DHT22;23223;51.006;7.610;2022-07-12T08:18:51;27.70;99.90
37340;DHT22;23223;51.006;7.610;2022-07-12T08:21:17;27.70;99.90
37340;DHT22;23223;51.006;7.610;2022-07-12T08:23:43;27.80;99.90
37340;DHT22;23223;51.006;7.610;2022-07-12T08:26:08;27.70;99.90
37340;DHT22;23223;51.006;7.610;2022-07-12T08:28:34;27.90;99.90
37340;DHT22;23223;51.006;7.610;2022-07-12T08:31:00;28.00;99.90
37340;DHT22;23223;51.006;7.610;2022-07-12T08:33:25;28.30;99.90
37340;DHT22;23223;51.006;7.610;2022-07-12T08:35:51;28.30;99.90
37340;DHT22;23223;51.006;7.610;2022-07-12T08:38:16;28.30;99.90
37340;DHT22;23223;51.006;7.610;2022-07-12T08:40:42;28.80;99.90
37340;DHT22;23223;51.006;7.610;2022-07-12T08:43:08;28.90;99.90
37340;DHT22;23223;51.006;7.610;2022-07-12T08:45:34;29.10;99.90
37340;DHT22;23223;51.006;7.610;2022-07-12T08:48:00;29.40;99.90
37340;DHT22;23223;51.006;7.610;2022-07-12T08:50:25;29.40;99.90
37340;DHT22;23223;51.006;7.610;2022-07-12T08:52:53;29.60;99.90
37340;DHT22;23223;51.006;7.610;2022-07-12T08:55:25;29.80;99.90
37340;DHT22;23223;51.006;7.610;2022-07-12T08:57:53;29.90;99.90
37340;DHT22;23223;51.006;7.610;2022-07-12T09:00:20;30.10;99.90
37340;DHT22;23223;51.006;7.610;2022-07-12T09:05:20;30.00;99.90
37340;DHT22;23223;51.006;7.610;2022-07-12T09:07:47;30.10;99.90
37340;DHT22;23223;51.006;7.610;2022-07-12T09:10:13;30.00;99.90
37340;DHT22;23223;51.006;7.610;2022-07-12T09:12:39;30.20;99.90
37340;DHT22;23223;51.006;7.610;2022-07-12T09:15:19;30.40;99.90
37340;DHT22;23223;51.006;7.610;2022-07-12T09:20:26;30.10;99.90
37340;DHT22;23223;51.006;7.610;2022-07-12T09:22:54;30.50;99.90
37340;DHT22;23223;51.006;7.610;2022-07-12T09:25:21;30.00;99.90
37340;DHT22;23223;51.006;7.610;2022-07-12T09:27:51;30.40;99.90
37340;DHT22;23223;51.006;7.610;2022-07-12T09:30:18;30.60;99.90
37340;DHT22;23223;51.006;7.610;2022-07-12T09:35:35;30.90;99.90
37340;DHT22;23223;51.006;7.610;2022-07-12T09:38:19;30.60;99.90
37340;DHT22;23223;51.006;7.610;2022-07-12T09:40:45;30.30;99.90
37340;DHT22;23223;51.006;7.610;2022-07-12T09:43:13;30.40;99.90
37340;DHT22;23223;51.006;7.610;2022-07-12T09:45:40;30.50;99.90
37340;DHT22;23223;51.006;7.610;2022-07-12T09:48:07;31.10;99.90
37340;DHT22;23223;51.006;7.610;2022-07-12T09:50:35;31.10;99.90
37340;DHT22;23223;51.006;7.610;2022-07-12T09:53:03;31.40;99.90
37340;DHT22;23223;51.006;7.610;2022-07-12T09:55:37;31.90;99.90
37340;DHT22;23223;51.006;7.610;2022-07-12T09:58:03;32.20;99.90
37340;DHT22;23223;51.006;7.610;2022-07-12T10:00:30;32.30;99.20
37340;DHT22;23223;51.006;7.610;2022-07-12T10:02:58;32.00;96.80
37340;DHT22;23223;51.006;7.610;2022-07-12T10:05:25;31.90;97.60
37340;DHT22;23223;51.006;7.610;2022-07-12T10:07:51;31.70;96.70
37340;DHT22;23223;51.006;7.610;2022-07-12T10:10:17;31.50;96.50
37340;DHT22;23223;51.006;7.610;2022-07-12T10:12:43;31.40;97.40
37340;DHT22;23223;51.006;7.610;2022-07-12T10:15:14;31.60;95.20
37340;DHT22;23223;51.006;7.610;2022-07-12T10:17:41;31.80;95.00
37340;DHT22;23223;51.006;7.610;2022-07-12T10:20:23;32.00;95.10
37340;DHT22;23223;51.006;7.610;2022-07-12T10:22:53;32.30;95.20
37340;DHT22;23223;51.006;7.610;2022-07-12T10:27:51;32.00;93.90
37340;DHT22;23223;51.006;7.610;2022-07-12T10:30:19;32.20;95.30
37340;DHT22;23223;51.006;7.610;2022-07-12T10:32:46;32.80;97.70
37340;DHT22;23223;51.006;7.610;2022-07-12T10:35:16;32.80;93.60
37340;DHT22;23223;51.006;7.610;2022-07-12T10:40:37;32.80;94.60
37340;DHT22;23223;51.006;7.610;2022-07-12T10:45:51;32.90;91.80
37340;DHT22;23223;51.006;7.610;2022-07-12T10:48:20;32.60;91.80
37340;DHT22;23223;51.006;7.610;2022-07-12T10:53:35;31.70;95.30
37340;DHT22;23223;51.006;7.610;2022-07-12T10:56:19;31.60;93.60
37340;DHT22;23223;51.006;7.610;2022-07-12T10:58:51;31.50;91.90
37340;DHT22;23223;51.006;7.610;2022-07-12T11:01:24;31.40;90.90
37340;DHT22;23223;51.006;7.610;2022-07-12T11:03:55;31.60;91.50
37340;DHT22;23223;51.006;7.610;2022-07-12T11:06:25;31.90;91.00
37340;DHT22;23223;51.006;7.610;2022-07-12T11:09:02;32.50;91.30
37340;DHT22;23223;51.006;7.610;2022-07-12T11:11:30;32.80;90.60
37340;DHT22;23223;51.006;7.610;2022-07-12T11:13:58;33.10;90.10
37340;DHT22;23223;51.006;7.610;2022-07-12T11:16:24;32.80;87.40
37340;DHT22;23223;51.006;7.610;2022-07-12T11:18:51;32.50;87.40
37340;DHT22;23223;51.006;7.610;2022-07-12T11:21:18;32.60;88.60
37340;DHT22;23223;51.006;7.610;2022-07-12T11:23:44;33.10;86.30
37340;DHT22;23223;51.006;7.610;2022-07-12T11:26:11;32.90;85.40
37340;DHT22;23223;51.006;7.610;2022-07-12T11:28:38;33.20;85.40
37340;DHT22;23223;51.006;7.610;2022-07-12T11:31:10;33.50;84.10
37340;DHT22;23223;51.006;7.610;2022-07-12T11:33:38;33.90;83.30
37340;DHT22;23223;51.006;7.610;2022-07-12T11:36:08;33.70;81.20
37340;DHT22;23223;51.006;7.610;2022-07-12T11:38:35;33.80;82.10
37340;DHT22;23223;51.006;7.610;2022-07-12T11:41:03;34.10;81.70
37340;DHT22;23223;51.006;7.610;2022-07-12T11:43:30;34.30;81.80
37340;DHT22;23223;51.006;7.610;2022-07-12T11:45:56;34.50;83.10
37340;DHT22;23223;51.006;7.610;2022-07-12T11:48:22;34.90;79.50
37340;DHT22;23223;51.006;7.610;2022-07-12T11:50:55;34.90;78.20
37340;DHT22;23223;51.006;7.610;2022-07-12T11:53:25;35.00;78.70
37340;DHT22;23223;51.006;7.610;2022-07-12T11:55:56;34.50;74.40
37340;DHT22;23223;51.006;7.610;2022-07-12T11:58:23;34.80;74.10
37340;DHT22;23223;51.006;7.610;2022-07-12T12:00:50;34.30;76.20
37340;DHT22;23223;51.006;7.610;2022-07-12T12:03:17;34.30;78.00
37340;DHT22;23223;51.006;7.610;2022-07-12T12:05:45;34.40;76.60
37340;DHT22;23223;51.006;7.610;2022-07-12T12:08:14;34.30;76.30
37340;DHT22;23223;51.006;7.610;2022-07-12T12:10:41;34.40;75.80
37340;DHT22;23223;51.006;7.610;2022-07-12T12:13:17;34.50;75.00
37340;DHT22;23223;51.006;7.610;2022-07-12T12:18:34;34.30;76.20
37340;DHT22;23223;51.006;7.610;2022-07-12T12:21:03;35.10;78.00
37340;DHT22;23223;51.006;7.610;2022-07-12T12:23:29;35.10;73.50
37340;DHT22;23223;51.006;7.610;2022-07-12T12:26:19;35.30;72.80
37340;DHT22;23223;51.006;7.610;2022-07-12T12:28:53;35.30;73.10
37340;DHT22;23223;51.006;7.610;2022-07-12T12:31:21;35.40;72.70
37340;DHT22;23223;51.006;7.610;2022-07-12T12:33:50;35.60;71.40
37340;DHT22;23223;51.006;7.610;2022-07-12T12:38:52;34.80;71.20
37340;DHT22;23223;51.006;7.610;2022-07-12T12:41:18;34.70;70.90
37340;DHT22;23223;51.006;7.610;2022-07-12T12:43:48;34.60;70.80
37340;DHT22;23223;51.006;7.610;2022-07-12T12:46:13;34.80;71.00
37340;DHT22;23223;51.006;7.610;2022-07-12T12:48:46;34.70;69.60
37340;DHT22;23223;51.006;7.610;2022-07-12T12:51:13;35.30;70.40
37340;DHT22;23223;51.006;7.610;2022-07-12T12:53:40;35.50;69.50
37340;DHT22;23223;51.006;7.610;2022-07-12T12:56:14;35.80;73.50
37340;DHT22;23223;51.006;7.610;2022-07-12T12:58:41;35.60;66.80
37340;DHT22;23223;51.006;7.610;2022-07-12T13:01:07;35.50;65.90
37340;DHT22;23223;51.006;7.610;2022-07-12T13:03:33;34.90;66.00
37340;DHT22;23223;51.006;7.610;2022-07-12T13:05:59;35.10;67.00
37340;DHT22;23223;51.006;7.610;2022-07-12T13:08:26;35.20;67.20
37340;DHT22;23223;51.006;7.610;2022-07-12T13:10:53;35.30;67.40
37340;DHT22;23223;51.006;7.610;2022-07-12T13:13:39;35.30;66.20
37340;DHT22;23223;51.006;7.610;2022-07-12T13:16:05;35.10;66.30
37340;DHT22;23223;51.006;7.610;2022-07-12T13:18:31;34.80;67.40
37340;DHT22;23223;51.006;7.610;2022-07-12T13:20:57;34.40;66.30
37340;DHT22;23223;51.006;7.610;2022-07-12T13:23:22;34.50;66.90
37340;DHT22;23223;51.006;7.610;2022-07-12T13:25:48;34.10;67.10
37340;DHT22;23223;51.006;7.610;2022-07-12T13:28:14;34.10;67.00
37340;DHT22;23223;51.006;7.610;2022-07-12T13:30:39;34.00;67.60
37340;DHT22;23223;51.006;7.610;2022-07-12T13:33:05;33.90;66.80
37340;DHT22;23223;51.006;7.610;2022-07-12T13:35:31;34.00;67.90
37340;DHT22;23223;51.006;7.610;2022-07-12T13:37:56;34.30;67.60
37340;DHT22;23223;51.006;7.610;2022-07-12T13:40:23;34.40;67.30
37340;DHT22;23223;51.006;7.610;2022-07-12T13:42:50;34.80;67.30
37340;DHT22;23223;51.006;7.610;2022-07-12T13:45:22;35.20;67.80
37340;DHT22;23223;51.006;7.610;2022-07-12T13:47:48;35.40;71.80
37340;DHT22;23223;51.006;7.610;2022-07-12T13:50:17;35.70;64.50
37340;DHT22;23223;51.006;7.610;2022-07-12T13:52:44;35.40;64.30
37340;DHT22;23223;51.006;7.610;2022-07-12T13:55:11;35.00;64.50
37340;DHT22;23223;51.006;7.610;2022-07-12T13:57:37;34.70;65.00
37340;DHT22;23223;51.006;7.610;2022-07-12T14:00:08;34.30;64.40
37340;DHT22;23223;51.006;7.610;2022-07-12T14:02:35;34.40;70.90
37340;DHT22;23223;51.006;7.610;2022-07-12T14:05:03;34.50;65.10
37340;DHT22;23223;51.006;7.610;2022-07-12T14:07:29;34.20;63.70
37340;DHT22;23223;51.006;7.610;2022-07-12T14:09:55;33.70;65.50
37340;DHT22;23223;51.006;7.610;2022-07-12T14:12:21;33.80;72.30
37340;DHT22;23223;51.006;7.610;2022-07-12T14:14:46;34.10;71.10
37340;DHT22;23223;51.006;7.610;2022-07-12T14:17:30;34.30;66.70
37340;DHT22;23223;51.006;7.610;2022-07-12T14:19:58;34.30;64.20
37340;DHT22;23223;51.006;7.610;2022-07-12T14:22:24;33.90;63.20
37340;DHT22;23223;51.006;7.610;2022-07-12T14:24:50;33.50;65.10
37340;DHT22;23223;51.006;7.610;2022-07-12T14:27:15;33.10;65.60
37340;DHT22;23223;51.006;7.610;2022-07-12T14:29:41;33.00;66.50
37340;DHT22;23223;51.006;7.610;2022-07-12T14:32:06;32.90;66.70
37340;DHT22;23223;51.006;7.610;2022-07-12T14:34:32;32.90;65.80
37340;DHT22;23223;51.006;7.610;2022-07-12T14:36:57;32.70;70.90
37340;DHT22;23223;51.006;7.610;2022-07-12T14:39:23;32.50;66.20
37340;DHT22;23223;51.006;7.610;2022-07-12T14:41:49;32.40;66.40
37340;DHT22;23223;51.006;7.610;2022-07-12T14:44:14;32.30;68.20
37340;DHT22;23223;51.006;7.610;2022-07-12T14:46:40;32.60;70.80
37340;DHT22;23223;51.006;7.610;2022-07-12T14:49:05;32.40;66.50
37340;DHT22;23223;51.006;7.610;2022-07-12T14:51:31;32.30;73.20
37340;DHT22;23223;51.006;7.610;2022-07-12T14:53:57;32.70;67.00
37340;DHT22;23223;51.006;7.610;2022-07-12T14:56:22;32.60;66.00
37340;DHT22;23223;51.006;7.610;2022-07-12T14:58:48;32.40;69.30
37340;DHT22;23223;51.006;7.610;2022-07-12T15:01:13;32.20;66.60
37340;DHT22;23223;51.006;7.610;2022-07-12T15:03:39;31.80;69.10
37340;DHT22;23223;51.006;7.610;2022-07-12T15:06:04;31.90;74.90
37340;DHT22;23223;51.006;7.610;2022-07-12T15:08:30;31.80;69.30
37340;DHT22;23223;51.006;7.610;2022-07-12T15:10:56;31.60;70.00
37340;DHT22;23223;51.006;7.610;2022-07-12T15:13:22;31.40;72.30
37340;DHT22;23223;51.006;7.610;2022-07-12T15:15:48;31.70;74.80
37340;DHT22;23223;51.006;7.610;2022-07-12T15:18:14;31.70;70.00
37340;DHT22;23223;51.006;7.610;2022-07-12T15:20:39;31.80;69.50
37340;DHT22;23223;51.006;7.610;2022-07-12T15:23:05;31.70;69.80
37340;DHT22;23223;51.006;7.610;2022-07-12T15:25:30;31.40;72.00
37340;DHT22;23223;51.006;7.610;2022-07-12T15:27:57;31.30;70.80
37340;DHT22;23223;51.006;7.610;2022-07-12T15:30:23;31.50;70.70
37340;DHT22;23223;51.006;7.610;2022-07-12T15:32:49;31.70;72.20
37340;DHT22;23223;51.006;7.610;2022-07-12T15:35:15;31.70;71.70
37340;DHT22;23223;51.006;7.610;2022-07-12T15:37:40;32.00;72.70
37340;DHT22;23223;51.006;7.610;2022-07-12T15:40:06;32.00;69.20
37340;DHT22;23223;51.006;7.610;2022-07-12T15:42:32;31.90;72.30
37340;DHT22;23223;51.006;7.610;2022-07-12T15:44:58;31.80;69.40
37340;DHT22;23223;51.006;7.610;2022-07-12T15:47:24;31.60;69.60
37340;DHT22;23223;51.006;7.610;2022-07-12T15:49:50;31.30;71.60
37340;DHT22;23223;51.006;7.610;2022-07-12T15:52:16;31.30;73.50